Castle Hills, Texas
Current Conditions -  °F | °C
As of 4:51 AM on Tuesday 21 Oct 2014 (Local Time) from KSAT Reporting Station
Scattered Clouds Scattered Clouds  
Wind Chill: 64°   Ceiling: Unl
Heat Index: 64°   Visibility: 10mi
Dew Point: 58°   Wind: 0mph
Humidity: 80%   Direction: NA
Pressure: 30.03"   Gusts: NA
Location:  29.5157°N, 98.5226°W
Report Text: KSAT 210951Z 00000KT 10SM SCT250 18/14 A3003 RMK AO2 SLP151 T01780144
Loading
Personal Weather Stations






























Interactive Weather Map
Tropical Storm Tracking
New forecast layout! Learn more

10-Day Weather Forecast

Advertisements
Track Severe Weather on mobile